Weather History for Hayden, CO

Change the Weather History Date:

Sunday, November 25, 2012

  Actual Average Record
Temperature  
Mean Temperature 37 °F -  
Max Temperature 53 °F 39 °F 60 °F (1949)
Min Temperature 21 °F 19 °F -9 °F (2010)
Degree Days  
Heating Degree Days 28    
Moisture  
Dew Point 16 °F    
Average Humidity 49    
Maximum Humidity 74    
Minimum Humidity 22    
Precipitation  
Precipitation 0.00 in - - ()
Sea Level Pressure  
Sea Level Pressure 30.01 in    
Wind  
Wind Speed 9 mph (SSW)    
Max Wind Speed 28 mph    
Max Gust Speed 31 mph    
Visibility 10 miles    
Events      
Averages and records for this station are not official NWS values.
T = Trace of Precipitation, MM = Missing Value Source: NWS Daily Summary

Daily Weather History Graph

Daily Weather History Graph

Search for Another Location

Airport:

Trip Planner

Search our weather history database for the weather conditions in past years. The results will help you decide how hot, cold, wet, or windy it might be!

Date:

Astronomy

Nov. 25, 2012 Rise Set
Actual Time 7:07 AM MST 4:44 PM MST
Civil Twilight 6:37 AM MST 5:14 PM MST
Nautical Twilight 6:03 AM MST 5:48 PM MST
Astronomical Twilight 5:30 AM MST 6:20 PM MST
Moon 3:03 PM MST (11/25) 4:23 AM MST (11/25)
Length of Visible Light 10h 37m
Length of Day
9h 37m
Waxing Gibbous, 93% of the Moon is Illuminated
Nov 25
Waxing Gibbous
Nov 28
Full
Dec 6
Last Quarter
Dec 13
New
Dec 19
First Quarter

Hourly Weather History & Observations

Time (MST) Temp. Windchill Dew Point Humidity Pressure Visibility Wind Dir Wind Speed Gust Speed Precip Events Conditions
12:15 AM 28.4 °F 23.3 °F 14.0 °F 55% 30.09 in 10.0 mi East 4.6 mph - N/A   Clear
12:35 AM 24.8 °F 14.6 °F 12.2 °F 59% 30.08 in 10.0 mi East 10.4 mph - N/A   Clear
12:55 AM 26.6 °F 16.8 °F 15.8 °F 64% 30.08 in 10.0 mi ESE 10.4 mph - N/A   Clear
1:15 AM 28.4 °F - 14.0 °F 55% 30.07 in 10.0 mi Calm Calm - N/A   Clear
1:35 AM 26.6 °F 22.6 °F 12.2 °F 55% 30.07 in 10.0 mi ESE 3.5 mph - N/A   Clear
1:55 AM 23.0 °F 17.0 °F 12.2 °F 63% 30.07 in 10.0 mi SE 4.6 mph - N/A   Clear
2:15 AM 24.8 °F 14.0 °F 15.8 °F 69% 30.07 in 10.0 mi ESE 11.5 mph - N/A   Clear
2:35 AM 24.8 °F 14.6 °F 14.0 °F 64% 30.07 in 10.0 mi ESE 10.4 mph - N/A   Clear
2:55 AM 26.6 °F 16.2 °F 15.8 °F 64% 30.06 in 10.0 mi East 11.5 mph - N/A   Clear
3:15 AM 26.6 °F 14.7 °F 15.8 °F 64% 30.06 in 10.0 mi ESE 15.0 mph - N/A   Clear
3:35 AM 24.8 °F 16.1 °F 14.0 °F 64% 30.05 in 10.0 mi SE 8.1 mph - N/A   Clear
3:55 AM 21.2 °F 12.6 °F 12.2 °F 68% 30.05 in 10.0 mi SE 6.9 mph - N/A   Clear
4:15 AM 24.8 °F 14.0 °F 12.2 °F 59% 30.05 in 10.0 mi SE 11.5 mph - N/A   Clear
4:35 AM 24.8 °F 13.4 °F 14.0 °F 64% 30.04 in 10.0 mi ESE 12.7 mph - N/A   Clear
4:55 AM 26.6 °F 16.8 °F 14.0 °F 59% 30.04 in 10.0 mi ESE 10.4 mph - N/A   Clear
5:35 AM 24.8 °F 13.4 °F 15.8 °F 69% 30.03 in 10.0 mi ESE 12.7 mph - N/A   Clear
5:55 AM 24.8 °F 13.4 °F 14.0 °F 64% 30.03 in 10.0 mi SE 12.7 mph - N/A   Clear
6:15 AM 24.8 °F 15.3 °F 12.2 °F 59% 30.02 in 10.0 mi SE 9.2 mph - N/A   Clear
6:35 AM 23.0 °F 12.4 °F 12.2 °F 63% 30.02 in 10.0 mi ESE 10.4 mph - N/A   Clear
6:55 AM 23.0 °F 11.7 °F 14.0 °F 68% 30.02 in 10.0 mi SE 11.5 mph - N/A   Clear
7:15 AM 24.8 °F 14.0 °F 12.2 °F 59% 30.02 in 10.0 mi SE 11.5 mph - N/A   Clear
7:35 AM 24.8 °F 13.4 °F 14.0 °F 64% 30.02 in 10.0 mi SE 12.7 mph - N/A   Clear
7:55 AM 26.6 °F 18.2 °F 15.8 °F 64% 30.02 in 10.0 mi ESE 8.1 mph - N/A   Clear
8:15 AM 28.4 °F 19.7 °F 15.8 °F 59% 30.02 in 10.0 mi SSE 9.2 mph - N/A   Clear
8:35 AM 30.2 °F - 15.8 °F 55% 30.02 in 10.0 mi Calm Calm - N/A   Clear
8:55 AM 33.8 °F 27.7 °F 17.6 °F 52% 30.02 in 10.0 mi ESE 6.9 mph - N/A   Clear
9:15 AM 33.8 °F 25.8 °F 17.6 °F 52% 30.02 in 10.0 mi East 10.4 mph - N/A   Clear
9:35 AM 33.8 °F 26.4 °F 17.6 °F 52% 30.01 in 10.0 mi SE 9.2 mph - N/A   Clear
9:55 AM 35.6 °F 32.8 °F 17.6 °F 48% 30.01 in 10.0 mi East 3.5 mph - N/A   Clear
10:15 AM 37.4 °F 32.1 °F 17.6 °F 45% 30.01 in 10.0 mi East 6.9 mph - N/A   Clear
10:55 AM 44.6 °F - 17.6 °F 34% 29.99 in 10.0 mi Calm Calm - N/A   Clear
11:15 AM 44.6 °F - 17.6 °F 34% 29.98 in 10.0 mi Calm Calm - N/A   Clear
11:35 AM 46.4 °F 42.4 °F 19.4 °F 34% 29.97 in 10.0 mi West 8.1 mph - N/A   Clear
11:55 AM 48.2 °F - 19.4 °F 32% 29.95 in 10.0 mi West 11.5 mph - N/A   Clear
12:15 PM 48.2 °F - 17.6 °F 30% 29.94 in 10.0 mi NNW 13.8 mph 17.3 mph N/A   Clear
12:35 PM 48.2 °F - 17.6 °F 30% 29.93 in 10.0 mi NW 6.9 mph - N/A   Clear
12:55 PM 51.8 °F - 17.6 °F 26% 29.92 in 10.0 mi WNW 16.1 mph 21.9 mph N/A   Clear
1:15 PM 53.6 °F - 17.6 °F 24% 29.92 in 10.0 mi West 15.0 mph 25.3 mph N/A   Clear
1:35 PM 53.6 °F - 15.8 °F 22% 29.91 in 10.0 mi WNW 19.6 mph 23.0 mph N/A   Clear
1:55 PM 51.8 °F - 15.8 °F 24% 29.91 in 10.0 mi WNW 20.7 mph 28.8 mph N/A   Clear
2:15 PM 51.8 °F - 15.8 °F 24% 29.92 in 10.0 mi West 27.6 mph 31.1 mph N/A   Scattered Clouds
2:35 PM 51.8 °F - 15.8 °F 24% 29.92 in 10.0 mi WNW 21.9 mph 28.8 mph N/A   Mostly Cloudy
2:55 PM 50.0 °F - 14.0 °F 24% 29.93 in 10.0 mi WNW 20.7 mph 31.1 mph N/A   Partly Cloudy
3:15 PM 48.2 °F - 14.0 °F 25% 29.93 in 10.0 mi WNW 18.4 mph 25.3 mph N/A   Partly Cloudy
3:35 PM 48.2 °F - 15.8 °F 27% 29.94 in 10.0 mi WNW 12.7 mph 21.9 mph N/A   Partly Cloudy
3:55 PM 48.2 °F - 15.8 °F 27% 29.95 in 10.0 mi WNW 12.7 mph 18.4 mph N/A   Partly Cloudy
4:15 PM 46.4 °F 40.4 °F 15.8 °F 29% 29.96 in 10.0 mi WNW 13.8 mph 20.7 mph N/A   Partly Cloudy
4:35 PM 46.4 °F 38.5 °F 14.0 °F 27% 29.95 in 10.0 mi NNW 21.9 mph 26.5 mph N/A   Partly Cloudy
4:55 PM 44.6 °F 36.6 °F 15.8 °F 31% 29.95 in 10.0 mi NNW 19.6 mph - N/A   Clear
5:15 PM 44.6 °F 36.6 °F 17.6 °F 34% 29.95 in 10.0 mi North 19.6 mph 29.9 mph N/A   Partly Cloudy
5:35 PM 42.8 °F 35.4 °F 17.6 °F 36% 29.97 in 10.0 mi NNW 15.0 mph 23.0 mph N/A   Partly Cloudy
5:55 PM 42.8 °F 35.4 °F 19.4 °F 39% 29.98 in 10.0 mi NNW 15.0 mph 21.9 mph N/A   Mostly Cloudy
6:15 PM 41.0 °F 38.0 °F 21.2 °F 45% 29.99 in 10.0 mi West 4.6 mph - N/A   Scattered Clouds
6:35 PM 39.2 °F 35.9 °F 19.4 °F 45% 30.00 in 10.0 mi SW 4.6 mph - N/A   Mostly Cloudy
6:55 PM 37.4 °F 33.8 °F 19.4 °F 48% 30.00 in 10.0 mi SSW 4.6 mph - N/A   Overcast
7:15 PM 37.4 °F 33.8 °F 19.4 °F 48% 30.01 in 10.0 mi SW 4.6 mph - N/A   Scattered Clouds
7:35 PM 37.4 °F 32.1 °F 19.4 °F 48% 30.01 in 10.0 mi WSW 6.9 mph - N/A   Partly Cloudy
7:55 PM 35.6 °F 30.7 °F 19.4 °F 52% 30.02 in 10.0 mi SSW 5.8 mph - N/A   Partly Cloudy
8:15 PM 37.4 °F 32.8 °F 21.2 °F 52% 30.02 in 10.0 mi WNW 5.8 mph - N/A   Clear
8:35 PM 35.6 °F 31.7 °F 19.4 °F 52% 30.02 in 10.0 mi SSW 4.6 mph - N/A   Clear
8:55 PM 35.6 °F 31.7 °F 19.4 °F 52% 30.03 in 10.0 mi SW 4.6 mph - N/A   Clear
9:15 PM 33.8 °F 28.6 °F 19.4 °F 56% 30.03 in 10.0 mi WSW 5.8 mph - N/A   Clear
9:35 PM 32.0 °F 26.4 °F 19.4 °F 60% 30.03 in 10.0 mi SW 5.8 mph - N/A   Clear
9:55 PM 30.2 °F 25.4 °F 19.4 °F 64% 30.04 in 10.0 mi WSW 4.6 mph - N/A   Clear
10:15 PM 28.4 °F 23.3 °F 17.6 °F 64% 30.04 in 10.0 mi SSW 4.6 mph - N/A   Clear
10:35 PM 30.2 °F - 19.4 °F 64% 30.05 in 10.0 mi Calm Calm - N/A   Clear
10:55 PM 28.4 °F 22.2 °F 19.4 °F 69% 30.05 in 10.0 mi SW 5.8 mph - N/A   Clear
11:15 PM 28.4 °F 24.6 °F 17.6 °F 64% 30.06 in 10.0 mi SW 3.5 mph - N/A   Clear
11:35 PM 30.2 °F 26.7 °F 19.4 °F 64% 30.06 in 10.0 mi SW 3.5 mph - N/A   Clear
11:55 PM 26.6 °F 18.2 °F 19.4 °F 74% 30.07 in 10.0 mi SSW 8.1 mph - N/A   Clear